Time;durP1;ratioP1;P1;durP2;ratioP2;P2;SDS_P1;SDS_P2;PMS_P1;PMS_P2;Temp;Humidity;BMP_temperature;BMP_pressure;BME280_temperature;BME280_humidity;BME280_pressure;Samples;Min_cycle;Max_cycle;Signal;HPM_P1;HPM_P2
2020/07/28 00:01:55;;;;;;;4.2;2.5;;;;;;;19.63;80.64746;937.6033;;;;
2020/07/28 00:04:20;;;;;;;7.1;2.6;;;;;;;19.49;81.41504;937.6445;;;;
2020/07/28 00:06:45;;;;;;;5.1;2.4;;;;;;;19.36;82.06738;937.5028;;;;
2020/07/28 00:09:11;;;;;;;4.9;2.5;;;;;;;19.33;82.29395;937.5617;;;;
2020/07/28 00:11:36;;;;;;;5.4;2.5;;;;;;;19.27;82.41211;937.5818;;;;
2020/07/28 00:14:05;;;;;;;3.2;2.3;;;;;;;19.24;82.2207;937.5189;;;;
2020/07/28 00:16:31;;;;;;;4.1;2.5;;;;;;;19.07;82.90918;937.509;;;;
2020/07/28 00:18:56;;;;;;;4;2.5;;;;;;;19.22;82.44824;937.5103;;;;
2020/07/28 00:21:21;;;;;;;3.8;2.3;;;;;;;19.33;81.86328;937.5424;;;;
2020/07/28 00:23:46;;;;;;;4.2;2.6;;;;;;;19.34;81.89941;937.5003;;;;
2020/07/28 00:26:12;;;;;;;3;2.3;;;;;;;19.42;81.6582;937.4572;;;;
2020/07/28 00:28:37;;;;;;;2.9;2.2;;;;;;;19.46;81.07031;937.478;;;;
2020/07/28 00:31:03;;;;;;;2.6;2.1;;;;;;;19.27;81.74805;937.4472;;;;
2020/07/28 00:33:29;;;;;;;3.5;2.3;;;;;;;19.25;81.71973;937.4016;;;;
2020/07/28 00:35:54;;;;;;;4.1;2.6;;;;;;;19.22;81.66797;937.3513;;;;
2020/07/28 00:38:20;;;;;;;3.1;2.1;;;;;;;19.26;81.38574;937.3956;;;;
2020/07/28 00:40:45;;;;;;;3.3;2.4;;;;;;;19.18;81.68457;937.3925;;;;
2020/07/28 00:43:11;;;;;;;4.2;2.5;;;;;;;19.31;81.06738;937.3636;;;;
2020/07/28 00:45:38;;;;;;;6;2.5;;;;;;;19.33;81.00098;937.3705;;;;
2020/07/28 00:48:05;;;;;;;2.9;2.2;;;;;;;19.22;81.3418;937.2794;;;;
2020/07/28 00:50:30;;;;;;;4.7;2.3;;;;;;;19.32;81.06934;937.3483;;;;
2020/07/28 00:52:55;;;;;;;9.4;2.8;;;;;;;19.43;80.4502;937.3156;;;;
2020/07/28 00:55:20;;;;;;;5.1;2.4;;;;;;;19.47;80.12988;937.3049;;;;
2020/07/28 00:57:47;;;;;;;6.4;2.5;;;;;;;19.46;80.02344;937.2285;;;;
2020/07/28 01:00:12;;;;;;;6;2.4;;;;;;;19.48;79.79199;937.3491;;;;
2020/07/28 01:02:37;;;;;;;6.3;2.9;;;;;;;19.23;80.52832;937.302;;;;
2020/07/28 01:05:02;;;;;;;3.3;2.6;;;;;;;18.91;82.2168;937.2601;;;;
2020/07/28 01:07:27;;;;;;;5.2;2.6;;;;;;;19.06;81.54688;937.2211;;;;
2020/07/28 01:09:52;;;;;;;7.2;3;;;;;;;19.1;81.35547;937.2233;;;;
2020/07/28 01:12:17;;;;;;;7.1;2.7;;;;;;;19.13;80.9873;937.2155;;;;
2020/07/28 01:14:44;;;;;;;5.9;2.4;;;;;;;18.92;81.79785;937.2672;;;;
2020/07/28 01:17:09;;;;;;;5.8;2.6;;;;;;;18.65;82.9375;937.278;;;;
2020/07/28 01:19:34;;;;;;;6;2.5;;;;;;;18.57;83.6416;937.1987;;;;
2020/07/28 01:21:59;;;;;;;5;2.9;;;;;;;18.64;83.38574;937.2283;;;;
2020/07/28 01:24:24;;;;;;;3.5;2.6;;;;;;;18.71;82.85254;937.2631;;;;
2020/07/28 01:26:51;;;;;;;4.7;2.6;;;;;;;18.56;83.24414;937.2997;;;;
2020/07/28 01:29:19;;;;;;;6;3;;;;;;;18.53;83.55273;937.197;;;;
2020/07/28 01:31:42;;;;;;;7.3;2.6;;;;;;;18.57;83.16406;937.1543;;;;
2020/07/28 01:36:34;;;;;;;7.8;2.6;;;;;;;18.3;84.22852;937.135;;;;
2020/07/28 01:39:03;;;;;;;6.9;2.6;;;;;;;18.48;83.53125;937.1708;;;;
2020/07/28 01:41:33;;;;;;;3.4;2.9;;;;;;;18.31;84.20605;937.1729;;;;
2020/07/28 01:43:58;;;;;;;8.9;2.7;;;;;;;18.37;84.01172;937.2092;;;;
2020/07/28 01:46:26;;;;;;;6.7;2.9;;;;;;;18.33;83.88672;937.2085;;;;
2020/07/28 01:48:53;;;;;;;3.3;2.3;;;;;;;18.39;83.9209;937.1969;;;;
2020/07/28 01:51:18;;;;;;;6.7;2.7;;;;;;;18.33;84.24707;937.1779;;;;
2020/07/28 01:53:45;;;;;;;3.7;2.6;;;;;;;18.41;83.85449;937.1191;;;;
2020/07/28 01:56:12;;;;;;;3.9;2.7;;;;;;;18.47;83.25;937.1155;;;;
2020/07/28 01:58:39;;;;;;;6.4;2.9;;;;;;;18.44;83.30176;937.1057;;;;
2020/07/28 02:01:06;;;;;;;7.3;2.9;;;;;;;18.41;83.35449;937.1319;;;;
2020/07/28 02:03:34;;;;;;;5.7;2.7;;;;;;;18.53;82.9834;937.1373;;;;
2020/07/28 02:05:59;;;;;;;5.5;2.5;;;;;;;18.65;82.3418;937.0522;;;;
2020/07/28 02:08:27;;;;;;;5.1;2.5;;;;;;;18.65;82.30762;937.1088;;;;
2020/07/28 02:10:52;;;;;;;5.2;2.4;;;;;;;18.64;82.35254;937.0613;;;;
2020/07/28 02:13:18;;;;;;;4.5;2.8;;;;;;;18.6;82.3916;937.0069;;;;
2020/07/28 02:15:44;;;;;;;5.3;2.9;;;;;;;18.44;82.95313;937.017;;;;
2020/07/28 02:18:13;;;;;;;4.2;2.7;;;;;;;18.18;84.05371;937.0689;;;;
2020/07/28 02:20:38;;;;;;;5.1;2.8;;;;;;;18.23;83.90332;936.9777;;;;
2020/07/28 02:23:04;;;;;;;3.4;2.8;;;;;;;18.29;83.49512;937.0652;;;;
2020/07/28 02:25:29;;;;;;;6.9;2.9;;;;;;;18.31;83.22949;936.9972;;;;
2020/07/28 02:28:04;;;;;;;4.9;2.6;;;;;;;18.52;82.24707;937.0547;;;;
2020/07/28 02:30:27;;;;;;;7.8;3;;;;;;;18.53;82.27344;936.9432;;;;
2020/07/28 02:32:52;;;;;;;4;2.7;;;;;;;18.61;81.92676;936.9888;;;;
2020/07/28 02:35:18;;;;;;;4.6;3.2;;;;;;;18.54;81.84375;936.955;;;;
2020/07/28 02:37:43;;;;;;;13.1;3.1;;;;;;;18.48;82.06641;936.9741;;;;
2020/07/28 02:40:08;;;;;;;6.3;2.7;;;;;;;18.46;82.04883;936.9924;;;;
2020/07/28 02:42:34;;;;;;;6;3;;;;;;;18.44;82.08105;936.9412;;;;
2020/07/28 02:44:59;;;;;;;4.5;2.8;;;;;;;18.43;82.39258;936.9383;;;;
2020/07/28 02:47:27;;;;;;;3.6;2.7;;;;;;;18.41;82.16895;936.948;;;;
2020/07/28 02:49:52;;;;;;;3.3;2.8;;;;;;;18.49;81.88184;936.9973;;;;
2020/07/28 02:52:18;;;;;;;5.1;3.1;;;;;;;18.57;81.82715;936.9526;;;;
2020/07/28 02:54:43;;;;;;;6.3;2.8;;;;;;;18.65;80.87695;936.978;;;;
2020/07/28 02:57:09;;;;;;;8.8;3;;;;;;;18.71;80.63086;936.9911;;;;
2020/07/28 02:59:34;;;;;;;5.4;3.2;;;;;;;18.76;80.53613;937.0164;;;;
2020/07/28 03:01:59;;;;;;;4.8;2.6;;;;;;;18.74;80.19531;937.0444;;;;
2020/07/28 03:04:26;;;;;;;5.7;2.9;;;;;;;18.67;80.25195;937.0728;;;;
2020/07/28 03:06:52;;;;;;;5.5;2.9;;;;;;;18.51;81.07129;937.0759;;;;
2020/07/28 03:09:17;;;;;;;5.1;2.9;;;;;;;18.33;81.72559;937.0715;;;;
2020/07/28 03:11:42;;;;;;;4.9;2.8;;;;;;;18.23;82.41406;937.082;;;;
2020/07/28 03:14:08;;;;;;;4.3;2.4;;;;;;;18.33;81.89941;937.0731;;;;
2020/07/28 03:16:33;;;;;;;3.9;2.8;;;;;;;18.22;82.02832;937.1528;;;;
2020/07/28 03:18:58;;;;;;;7.6;2.9;;;;;;;18.25;81.97754;937.204;;;;
2020/07/28 03:21:25;;;;;;;5.7;2.9;;;;;;;18.36;81.47461;937.1313;;;;
2020/07/28 03:23:50;;;;;;;5.1;3;;;;;;;18.49;80.8916;937.2555;;;;
2020/07/28 03:26:16;;;;;;;4.9;2.9;;;;;;;18.59;80.37695;937.1208;;;;
2020/07/28 03:28:41;;;;;;;8.9;5.2;;;;;;;18.6;80.3916;937.1592;;;;
2020/07/28 03:31:06;;;;;;;4.2;2.9;;;;;;;18.57;80.5459;937.2722;;;;
2020/07/28 03:33:33;;;;;;;4.8;2.7;;;;;;;18.53;80.51758;937.3059;;;;
2020/07/28 03:35:58;;;;;;;4.4;3;;;;;;;18.55;80.39355;937.3442;;;;
2020/07/28 03:38:23;;;;;;;10.6;3.8;;;;;;;18.55;80.49902;937.2966;;;;
2020/07/28 03:40:49;;;;;;;4.3;2.9;;;;;;;18.49;80.86035;937.3641;;;;
2020/07/28 03:43:14;;;;;;;4.4;2.9;;;;;;;18.54;80.57617;937.2969;;;;
2020/07/28 03:45:40;;;;;;;4.1;2.9;;;;;;;18.54;80.49414;937.3147;;;;
2020/07/28 03:48:08;;;;;;;4.7;2.7;;;;;;;18.47;80.63574;937.3387;;;;
2020/07/28 03:50:33;;;;;;;6.5;2.9;;;;;;;18.57;80.40625;937.2883;;;;
2020/07/28 03:53:01;;;;;;;9.9;3.4;;;;;;;18.61;80.1123;937.3309;;;;
2020/07/28 03:55:26;;;;;;;7.5;3.1;;;;;;;18.6;80.1123;937.3495;;;;
2020/07/28 03:57:52;;;;;;;9.3;3.4;;;;;;;18.66;79.59863;937.1908;;;;
2020/07/28 04:02:30;;;;;;;6.3;3;;;;;;;18.64;79.65332;937.221;;;;
2020/07/28 04:04:57;;;;;;;6.5;3.2;;;;;;;18.52;79.875;937.3128;;;;
2020/07/28 04:07:22;;;;;;;6.7;3.1;;;;;;;18.5;79.98926;937.3429;;;;
2020/07/28 04:09:47;;;;;;;5.2;2.9;;;;;;;18.54;79.87793;937.4042;;;;
2020/07/28 04:12:12;;;;;;;5.3;3.1;;;;;;;18.58;79.68848;937.4252;;;;
2020/07/28 04:14:39;;;;;;;6.4;3.1;;;;;;;18.62;79.7666;937.4785;;;;
2020/07/28 04:17:04;;;;;;;8.3;3.3;;;;;;;18.6;79.68066;937.5359;;;;
2020/07/28 04:19:29;;;;;;;7.6;3.2;;;;;;;18.58;79.85156;937.5533;;;;
2020/07/28 04:21:55;;;;;;;6.9;3.3;;;;;;;18.66;79.62207;937.6409;;;;
2020/07/28 04:24:20;;;;;;;7.7;3;;;;;;;18.64;79.5127;937.6897;;;;
2020/07/28 04:26:45;;;;;;;7.2;3.6;;;;;;;18.64;79.60742;937.646;;;;
2020/07/28 04:29:10;;;;;;;7.7;3.8;;;;;;;18.65;79.70215;937.6839;;;;
2020/07/28 04:31:38;;;;;;;10.1;3.4;;;;;;;18.55;80.02148;937.7161;;;;
2020/07/28 04:34:10;;;;;;;7.7;3.9;;;;;;;18.71;80.375;937.7277;;;;
2020/07/28 04:36:38;;;;;;;6.8;3.8;;;;;;;18.91;79.67969;937.8346;;;;
2020/07/28 04:39:03;;;;;;;6.3;3.7;;;;;;;18.9;79.28027;937.759;;;;
2020/07/28 04:41:28;;;;;;;8.6;3.9;;;;;;;18.84;78.88672;937.7894;;;;
2020/07/28 04:43:54;;;;;;;5.6;3.5;;;;;;;18.93;79.56445;937.7906;;;;
2020/07/28 04:46:19;;;;;;;33.4;6.2;;;;;;;19.04;79.29492;937.7416;;;;
2020/07/28 04:48:46;;;;;;;9.9;3.3;;;;;;;19.12;79.00684;937.8033;;;;
2020/07/28 04:51:11;;;;;;;10.1;3.4;;;;;;;19.08;78.74414;937.7372;;;;
2020/07/28 04:53:38;;;;;;;5.9;3;;;;;;;19.24;78.91113;937.6691;;;;
2020/07/28 04:56:03;;;;;;;17;4.3;;;;;;;19.17;78.53711;937.6915;;;;
2020/07/28 04:58:31;;;;;;;7.5;3.3;;;;;;;19.2;78.21777;937.7012;;;;
2020/07/28 05:00:57;;;;;;;6.9;3;;;;;;;19.29;77.91895;937.7631;;;;
2020/07/28 05:03:24;;;;;;;17.1;3.1;;;;;;;19.32;77.88867;937.7463;;;;
2020/07/28 05:05:55;;;;;;;14.8;3.4;;;;;;;19.29;77.59277;937.7831;;;;
2020/07/28 05:08:23;;;;;;;8.9;2.8;;;;;;;19.4;75.39844;937.7063;;;;
2020/07/28 05:10:48;;;;;;;17.1;3.6;;;;;;;19.6;75.93359;937.7792;;;;
2020/07/28 05:13:15;;;;;;;11.1;3.3;;;;;;;19.82;74.25586;937.6906;;;;
2020/07/28 05:15:44;;;;;;;14.8;3.6;;;;;;;19.98;74.50488;937.717;;;;
2020/07/28 05:18:12;;;;;;;7.5;2.8;;;;;;;20.03;74.32715;937.6867;;;;
2020/07/28 05:20:37;;;;;;;20.9;4.3;;;;;;;20.06;74.78711;937.7039;;;;
2020/07/28 05:23:03;;;;;;;7.2;2.6;;;;;;;19.97;74;937.6778;;;;
2020/07/28 05:25:28;;;;;;;6.8;2.8;;;;;;;20.19;72.32422;937.7056;;;;
2020/07/28 05:27:54;;;;;;;11.8;3.3;;;;;;;20.38;72.99512;937.7307;;;;
2020/07/28 05:30:19;;;;;;;16;3.5;;;;;;;20.64;70.16406;937.6866;;;;
2020/07/28 05:32:44;;;;;;;6.5;2.5;;;;;;;21.64;69.07031;937.6666;;;;
2020/07/28 05:35:13;;;;;;;14.3;3.4;;;;;;;22.69;63.88086;937.6808;;;;
2020/07/28 05:37:38;;;;;;;6.1;2.6;;;;;;;23.2;62.69727;937.6548;;;;
2020/07/28 05:40:07;;;;;;;7.6;2.2;;;;;;;24.06;60.27441;937.6425;;;;
2020/07/28 05:42:32;;;;;;;9.8;2.9;;;;;;;23.9;60.86621;937.6718;;;;
2020/07/28 05:44:58;;;;;;;12.3;3.1;;;;;;;23.32;63.01953;937.6877;;;;
2020/07/28 05:47:25;;;;;;;9.7;2.7;;;;;;;22.81;65.35449;937.7173;;;;
2020/07/28 05:49:50;;;;;;;11.3;3;;;;;;;22.44;66.64844;937.7239;;;;
2020/07/28 05:52:15;;;;;;;4.2;2.1;;;;;;;22.83;65.48535;937.6232;;;;
2020/07/28 05:54:41;;;;;;;9;2.5;;;;;;;24.07;60.63965;937.6195;;;;
2020/07/28 05:57:06;;;;;;;7;2.1;;;;;;;25.39;56.91211;937.606;;;;
2020/07/28 05:59:33;;;;;;;12.3;2.8;;;;;;;26.85;52.45215;937.5928;;;;
2020/07/28 06:01:58;;;;;;;7.9;2;;;;;;;27.92;49.79883;937.5911;;;;
2020/07/28 06:04:23;;;;;;;10.3;2.4;;;;;;;28.93;49.18359;937.6153;;;;
2020/07/28 06:06:50;;;;;;;4.7;1.9;;;;;;;30.02;45.55664;937.5873;;;;
2020/07/28 06:09:15;;;;;;;4.4;1.8;;;;;;;30.69;44.45313;937.5959;;;;
2020/07/28 06:11:42;;;;;;;7.6;2.1;;;;;;;30.66;43.44531;937.5722;;;;
2020/07/28 06:14:07;;;;;;;4.1;1.9;;;;;;;29.9;44.18457;937.6097;;;;
2020/07/28 06:16:33;;;;;;;6.5;2.2;;;;;;;28.69;47.00488;937.6336;;;;
2020/07/28 06:18:58;;;;;;;5.9;2;;;;;;;27.7;50.26074;937.6233;;;;
2020/07/28 06:21:28;;;;;;;5.9;2.2;;;;;;;26.79;53.38184;937.6136;;;;
2020/07/28 06:23:57;;;;;;;6.3;2.4;;;;;;;26.38;54.45703;937.6158;;;;
2020/07/28 06:26:22;;;;;;;22.2;4.5;;;;;;;26.23;53.98926;937.6337;;;;
2020/07/28 06:28:48;;;;;;;15.7;3;;;;;;;26.19;54.75391;937.6387;;;;
2020/07/28 06:31:13;;;;;;;9.3;2.5;;;;;;;26.49;55.01563;937.6458;;;;
2020/07/28 06:33:42;;;;;;;7.8;2.6;;;;;;;27.93;52.16309;937.5719;;;;
2020/07/28 06:36:07;;;;;;;8.9;2.4;;;;;;;29.58;45.22559;937.587;;;;
2020/07/28 06:38:35;;;;;;;10.5;2.7;;;;;;;30.67;44.05566;937.6027;;;;
2020/07/28 06:41:00;;;;;;;10.4;2.3;;;;;;;32.2;40.10449;937.5121;;;;
2020/07/28 06:43:26;;;;;;;3.9;2;;;;;;;33.19;38.10059;937.4963;;;;
2020/07/28 06:45:56;;;;;;;4.9;1.6;;;;;;;33.63;37.75391;937.4487;;;;
2020/07/28 06:48:23;;;;;;;7;1.8;;;;;;;33.16;36.78906;937.4598;;;;
2020/07/28 06:50:48;;;;;;;6.7;2.2;;;;;;;33.45;36.55957;937.4614;;;;
2020/07/28 06:53:15;;;;;;;4.7;1.8;;;;;;;34.39;35.73145;937.4558;;;;
2020/07/28 06:55:40;;;;;;;3.9;1.8;;;;;;;34.98;35.21191;937.3928;;;;
2020/07/28 06:58:06;;;;;;;3.8;1.4;;;;;;;35.42;33.89355;937.3462;;;;
2020/07/28 07:00:43;;;;;;;2;1.4;;;;;;;36.06;30.65137;937.3153;;;;
2020/07/28 07:03:11;;;;;;;3.4;1.5;;;;;;;35.56;33.4082;937.3109;;;;
2020/07/28 07:05:36;;;;;;;3.8;1.5;;;;;;;35.79;34.34375;937.2625;;;;
2020/07/28 07:08:05;;;;;;;4;1.5;;;;;;;37.05;33.00781;937.318;;;;
2020/07/28 07:10:30;;;;;;;3.3;1.5;;;;;;;37.51;32.13086;937.2881;;;;
2020/07/28 07:12:55;;;;;;;3.4;1.6;;;;;;;37.65;30.52734;937.2313;;;;
2020/07/28 07:15:27;;;;;;;3.4;1.6;;;;;;;37.19;32.71484;937.1884;;;;
2020/07/28 07:17:53;;;;;;;3.6;1.4;;;;;;;36.09;34.40332;937.2944;;;;
2020/07/28 07:20:22;;;;;;;4.5;1.4;;;;;;;37.15;31.88867;937.2798;;;;
2020/07/28 07:22:52;;;;;;;2.6;1.4;;;;;;;36.88;31.7002;937.3383;;;;
2020/07/28 07:25:24;;;;;;;3.4;1.5;;;;;;;37.32;32.21582;937.267;;;;
2020/07/28 07:27:52;;;;;;;5.7;1.7;;;;;;;37.85;29.49609;937.257;;;;
2020/07/28 07:30:18;;;;;;;2.5;1.5;;;;;;;38.62;29.60742;937.2659;;;;
2020/07/28 07:32:43;;;;;;;3;1.4;;;;;;;38.89;30.17188;937.2678;;;;
2020/07/28 07:35:17;;;;;;;2.3;1.4;;;;;;;39.03;29.25586;937.2684;;;;
2020/07/28 07:37:45;;;;;;;2.8;1.4;;;;;;;39.14;28.44727;937.2496;;;;
2020/07/28 07:40:10;;;;;;;2.6;1.4;;;;;;;39;27.61133;937.2756;;;;
2020/07/28 07:42:39;;;;;;;3.9;1.4;;;;;;;38.39;29.96875;937.1254;;;;
2020/07/28 07:45:04;;;;;;;3.4;1.4;;;;;;;39.05;28.6123;937.1178;;;;
2020/07/28 07:47:31;;;;;;;2.5;1.4;;;;;;;39.97;29.16992;937.198;;;;
2020/07/28 07:49:56;;;;;;;2.6;1.4;;;;;;;40.66;25.3418;937.1055;;;;
2020/07/28 07:52:23;;;;;;;2.3;1.3;;;;;;;41;25.44629;937.1147;;;;
2020/07/28 07:54:49;;;;;;;3.3;1.6;;;;;;;41.47;24.75;937.0977;;;;
2020/07/28 07:57:14;;;;;;;4.2;1.8;;;;;;;39.71;25.64258;937.048;;;;
2020/07/28 07:59:42;;;;;;;2.7;1.4;;;;;;;39.31;29.0918;937.0139;;;;
2020/07/28 08:02:09;;;;;;;2.1;1.5;;;;;;;40.01;27.57422;937.0256;;;;
2020/07/28 08:04:34;;;;;;;3;1.5;;;;;;;41.02;26.29004;936.962;;;;
2020/07/28 08:07:01;;;;;;;4.5;1.4;;;;;;;41.59;25.25781;936.9303;;;;
2020/07/28 08:09:26;;;;;;;1.7;1.3;;;;;;;41.45;26.4375;936.9144;;;;
2020/07/28 08:11:54;;;;;;;2.8;1.5;;;;;;;41.97;24.0166;936.8897;;;;
2020/07/28 08:14:19;;;;;;;3.1;1.5;;;;;;;42.16;24.41895;936.9334;;;;
2020/07/28 08:16:44;;;;;;;2.5;1.4;;;;;;;40.94;24.69727;936.8876;;;;
2020/07/28 08:19:13;;;;;;;2.2;1.3;;;;;;;41.41;25.45605;936.8692;;;;
2020/07/28 08:21:39;;;;;;;1.8;1.1;;;;;;;42.46;24.14063;936.8258;;;;
2020/07/28 08:24:06;;;;;;;2.8;1.2;;;;;;;42.19;23.66113;936.7126;;;;
2020/07/28 08:26:31;;;;;;;2.2;1.2;;;;;;;42.39;23.10742;936.7189;;;;
2020/07/28 08:28:58;;;;;;;3.2;1.2;;;;;;;41.86;24.47754;936.6852;;;;
2020/07/28 08:31:23;;;;;;;3.8;1.3;;;;;;;42.57;23.65527;936.6838;;;;
2020/07/28 08:33:53;;;;;;;3.1;1.4;;;;;;;43.01;23.11328;936.6675;;;;
2020/07/28 08:36:19;;;;;;;10.6;5.8;;;;;;;42.48;24.63184;936.6047;;;;
2020/07/28 08:38:48;;;;;;;3;1.2;;;;;;;42.54;22.58789;936.5634;;;;
2020/07/28 08:41:14;;;;;;;4;1.7;;;;;;;42.86;23.79297;936.5583;;;;
2020/07/28 08:43:39;;;;;;;10.1;5.3;;;;;;;42.53;25.37012;936.5128;;;;
2020/07/28 08:46:07;;;;;;;10.1;5.3;;;;;;;42.82;23.95117;936.5255;;;;
2020/07/28 08:48:35;;;;;;;2.5;1.5;;;;;;;42.66;23.90625;936.4983;;;;
2020/07/28 08:51:00;;;;;;;4.4;1.6;;;;;;;42.86;25.80566;936.537;;;;
2020/07/28 08:53:28;;;;;;;2.7;1.4;;;;;;;43.41;23.44043;936.486;;;;
2020/07/28 08:55:53;;;;;;;3.3;1.9;;;;;;;42.9;24.34766;936.4755;;;;
2020/07/28 08:58:20;;;;;;;2.3;1.4;;;;;;;43.19;24.06738;936.4498;;;;
2020/07/28 09:00:46;;;;;;;2.8;1.2;;;;;;;43.5;24.26855;936.5017;;;;
2020/07/28 09:03:14;;;;;;;2.1;1.3;;;;;;;43.51;25.25195;936.5257;;;;
2020/07/28 09:05:39;;;;;;;2.5;1.5;;;;;;;43.24;25.54395;936.4966;;;;
2020/07/28 09:08:05;;;;;;;1.6;1.2;;;;;;;43.44;24.47363;936.5058;;;;
2020/07/28 09:10:30;;;;;;;3.8;1.3;;;;;;;42.8;25.25098;936.5212;;;;
2020/07/28 09:12:55;;;;;;;3.3;1.3;;;;;;;42.75;25.1377;936.4604;;;;
2020/07/28 09:15:30;;;;;;;3.6;1.7;;;;;;;41.11;25.97754;936.4449;;;;
2020/07/28 09:17:55;;;;;;;4.4;1.5;;;;;;;40.54;28.61914;936.4281;;;;
2020/07/28 09:20:24;;;;;;;3.2;1.5;;;;;;;40.22;28.89258;936.4177;;;;
2020/07/28 09:22:49;;;;;;;4.2;1.5;;;;;;;39.76;29.53418;936.3842;;;;
2020/07/28 09:25:19;;;;;;;2.3;1.3;;;;;;;39.15;31.0166;936.332;;;;
2020/07/28 09:27:44;;;;;;;3.3;1.4;;;;;;;38.97;31.42969;936.3837;;;;
2020/07/28 09:30:10;;;;;;;4.6;1.5;;;;;;;38.37;32.7627;936.3719;;;;
2020/07/28 09:32:35;;;;;;;2.9;1.3;;;;;;;38.27;30.52051;936.3452;;;;
2020/07/28 09:35:00;;;;;;;1.8;1.4;;;;;;;38.13;31.12988;936.2744;;;;
2020/07/28 09:37:27;;;;;;;2.7;1.4;;;;;;;37.96;35.2959;936.33;;;;
2020/07/28 09:39:52;;;;;;;4.2;1.5;;;;;;;37.78;32.98828;936.2996;;;;
2020/07/28 09:42:19;;;;;;;3.3;1.4;;;;;;;37.76;32.06445;936.2628;;;;
2020/07/28 09:44:44;;;;;;;4;1.5;;;;;;;37.48;33.17285;936.2093;;;;
2020/07/28 09:47:09;;;;;;;2.7;1.6;;;;;;;37.36;32.4248;936.2301;;;;
2020/07/28 09:49:35;;;;;;;3.8;1.4;;;;;;;36.99;33.57324;936.1822;;;;
2020/07/28 09:52:00;;;;;;;2.4;1.6;;;;;;;37;34.41016;936.1541;;;;
2020/07/28 09:54:27;;;;;;;4.2;1.6;;;;;;;37.06;34.09961;936.0934;;;;
2020/07/28 09:56:52;;;;;;;2.8;1.6;;;;;;;36.9;34.29395;936.0914;;;;
2020/07/28 09:59:17;;;;;;;2.1;1.6;;;;;;;37.03;33.52734;936.0419;;;;
2020/07/28 10:01:43;;;;;;;2.6;1.6;;;;;;;37.1;35.84766;936.0823;;;;
2020/07/28 10:04:10;;;;;;;4;1.7;;;;;;;37.2;34.53418;936.0645;;;;
2020/07/28 10:06:35;;;;;;;2;1.7;;;;;;;36.94;35.03613;936.0183;;;;
2020/07/28 10:09:03;;;;;;;4.6;1.7;;;;;;;37.19;34.93359;936.0156;;;;
2020/07/28 10:11:29;;;;;;;2.2;1.5;;;;;;;37.44;36.45605;936.0031;;;;
2020/07/28 10:13:54;;;;;;;4.3;1.6;;;;;;;37.74;34.34473;935.9401;;;;
2020/07/28 10:16:24;;;;;;;2.5;1.5;;;;;;;37.86;35.66406;935.934;;;;
2020/07/28 10:18:49;;;;;;;2.4;1.8;;;;;;;37.88;34.60938;935.8738;;;;
2020/07/28 10:21:14;;;;;;;3.6;1.6;;;;;;;37.64;34.66406;935.8744;;;;
2020/07/28 10:23:39;;;;;;;3.4;1.7;;;;;;;37.72;34.97363;935.8205;;;;
2020/07/28 10:26:07;;;;;;;4.8;1.7;;;;;;;37.24;34.18555;935.7631;;;;
2020/07/28 10:28:32;;;;;;;3.2;1.7;;;;;;;37.37;33.89258;935.7278;;;;
2020/07/28 10:30:57;;;;;;;8.3;3.2;;;;;;;37.6;33.99414;935.7333;;;;
2020/07/28 10:33:23;;;;;;;27.2;9;;;;;;;37.48;33.41504;935.6631;;;;
2020/07/28 10:35:48;;;;;;;3.2;1.7;;;;;;;37.53;33.40723;935.5931;;;;
2020/07/28 10:38:16;;;;;;;2.4;1.7;;;;;;;37.72;34.6582;935.66;;;;
2020/07/28 10:40:41;;;;;;;3.7;1.7;;;;;;;37.92;34.6123;935.5503;;;;
2020/07/28 10:43:07;;;;;;;4.1;1.7;;;;;;;38;34.19336;935.5536;;;;
2020/07/28 10:45:34;;;;;;;3;1.8;;;;;;;38.04;33.9541;935.54;;;;
2020/07/28 10:47:59;;;;;;;3.4;1.5;;;;;;;38.37;33.0791;935.5421;;;;
2020/07/28 10:50:24;;;;;;;2.8;1.6;;;;;;;38.51;33.11328;935.4674;;;;
2020/07/28 10:52:49;;;;;;;4;1.6;;;;;;;38.29;33.69336;935.4196;;;;
2020/07/28 10:55:17;;;;;;;3.9;1.8;;;;;;;38.38;33.15234;935.44;;;;
2020/07/28 10:57:42;;;;;;;3;1.7;;;;;;;38.05;34.52539;935.3867;;;;
2020/07/28 11:00:13;;;;;;;2.9;1.7;;;;;;;38.59;31.41699;935.3329;;;;
2020/07/28 11:02:38;;;;;;;2;1.5;;;;;;;38.88;32.08203;935.4091;;;;
2020/07/28 11:05:13;;;;;;;3.1;1.7;;;;;;;38.65;32.60059;935.2798;;;;
2020/07/28 11:07:38;;;;;;;3.5;1.8;;;;;;;38.47;31.93164;935.2254;;;;
2020/07/28 11:10:03;;;;;;;3;1.8;;;;;;;38.34;32.74805;935.2296;;;;
2020/07/28 11:12:29;;;;;;;2.7;1.6;;;;;;;37.81;32.96582;935.1696;;;;
2020/07/28 11:14:54;;;;;;;2.6;1.6;;;;;;;37.95;34.27441;935.1808;;;;
2020/07/28 11:17:19;;;;;;;4;1.6;;;;;;;38.03;34.12305;935.1291;;;;
2020/07/28 11:19:46;;;;;;;3.3;1.7;;;;;;;37.7;32.59375;935.0284;;;;
2020/07/28 11:22:11;;;;;;;3.5;1.7;;;;;;;37.23;33.26367;934.9796;;;;
2020/07/28 11:24:36;;;;;;;3.1;1.8;;;;;;;37.15;34.97949;934.9722;;;;
2020/07/28 11:27:02;;;;;;;4.4;1.7;;;;;;;37.1;35.54492;934.9783;;;;
2020/07/28 11:29:28;;;;;;;3.3;2;;;;;;;36.7;35.52637;934.9576;;;;
2020/07/28 11:31:55;;;;;;;2.1;1.7;;;;;;;36.58;36.07324;934.8736;;;;
2020/07/28 11:34:21;;;;;;;3.6;1.8;;;;;;;36.41;37.54883;934.7814;;;;
2020/07/28 11:36:46;;;;;;;3.7;1.9;;;;;;;36.42;36.45996;934.761;;;;
2020/07/28 11:39:12;;;;;;;3;1.9;;;;;;;36.37;36.84277;934.7206;;;;
2020/07/28 11:41:38;;;;;;;3.7;1.8;;;;;;;36.18;36.96191;934.6858;;;;
2020/07/28 11:44:03;;;;;;;3.9;1.9;;;;;;;35.87;37.44434;934.6319;;;;
2020/07/28 11:46:29;;;;;;;3.3;2;;;;;;;35.61;38.44922;934.6066;;;;
2020/07/28 11:48:56;;;;;;;3.3;1.9;;;;;;;35.32;38.41309;934.5193;;;;
2020/07/28 11:51:21;;;;;;;3.8;2;;;;;;;35.15;38.44727;934.5193;;;;
2020/07/28 11:53:49;;;;;;;4;1.9;;;;;;;34.94;40.62402;934.5823;;;;
2020/07/28 11:56:14;;;;;;;5.1;2;;;;;;;34.79;38.44043;934.5981;;;;
2020/07/28 11:58:40;;;;;;;8.8;2.2;;;;;;;34.37;38.59863;934.5607;;;;
2020/07/28 12:01:05;;;;;;;7.4;2.8;;;;;;;34.27;38.50488;934.4687;;;;
2020/07/28 12:03:30;;;;;;;9.1;2.6;;;;;;;34.38;40.69434;934.4103;;;;
2020/07/28 12:06:00;;;;;;;5.2;2.2;;;;;;;34.56;41.73535;934.3848;;;;
2020/07/28 12:08:28;;;;;;;9.4;2.6;;;;;;;34.67;39.56348;934.3016;;;;
2020/07/28 12:10:52;;;;;;;5.3;2.2;;;;;;;34.38;39.08105;934.3024;;;;
2020/07/28 12:13:17;;;;;;;8.2;2.6;;;;;;;34.07;41.00391;934.2784;;;;
2020/07/28 12:15:54;;;;;;;5;2.1;;;;;;;34.15;41.17969;934.2927;;;;
2020/07/28 12:18:20;;;;;;;2.5;2;;;;;;;33.97;39.59863;934.3306;;;;
2020/07/28 12:20:46;;;;;;;6.1;2.4;;;;;;;33.8;40.74023;934.3152;;;;
2020/07/28 12:23:11;;;;;;;9.4;2.5;;;;;;;33.49;41.62598;934.2422;;;;
2020/07/28 12:25:37;;;;;;;8.7;2.7;;;;;;;33.54;41.00391;934.2173;;;;
2020/07/28 12:28:03;;;;;;;11;2.4;;;;;;;33.65;42.45703;934.2595;;;;
2020/07/28 12:30:33;;;;;;;8.3;2.8;;;;;;;33.26;40.40332;934.1969;;;;
2020/07/28 12:32:59;;;;;;;5.9;2.5;;;;;;;33.18;42.24609;934.1629;;;;
2020/07/28 12:35:24;;;;;;;6.2;2.4;;;;;;;32.89;40.85059;934.2916;;;;
2020/07/28 12:37:49;;;;;;;5.4;2.8;;;;;;;32.55;42.76367;934.301;;;;
2020/07/28 12:40:14;;;;;;;9.9;2.7;;;;;;;32.61;41.58105;934.158;;;;
2020/07/28 12:42:41;;;;;;;6.6;2.7;;;;;;;33.04;44.40723;934.1289;;;;
2020/07/28 12:45:06;;;;;;;8.6;2.6;;;;;;;33.44;43.71289;934.0987;;;;
2020/07/28 12:47:32;;;;;;;10;2.7;;;;;;;33.61;45.3291;934.08;;;;
2020/07/28 12:49:57;;;;;;;5;2.2;;;;;;;33.42;43.19336;934.0697;;;;
2020/07/28 12:52:22;;;;;;;3.7;2.4;;;;;;;33.38;42.5293;934.1597;;;;
2020/07/28 12:54:47;;;;;;;3.5;2.2;;;;;;;33.16;41.30664;934.175;;;;
2020/07/28 12:57:13;;;;;;;4.2;2.4;;;;;;;33.3;44.38477;934.1981;;;;
2020/07/28 12:59:38;;;;;;;4;2.4;;;;;;;33.34;43.23438;934.1758;;;;
2020/07/28 13:02:05;;;;;;;3.4;2.1;;;;;;;33.47;43.42676;934.1072;;;;
2020/07/28 13:04:30;;;;;;;5.8;2.4;;;;;;;33.36;44.01758;934.0842;;;;
2020/07/28 13:06:55;;;;;;;4.5;2.2;;;;;;;33.04;42.5332;934.0903;;;;
2020/07/28 13:09:20;;;;;;;9;2.6;;;;;;;32.82;43.01758;934.1408;;;;
2020/07/28 13:11:47;;;;;;;6.6;2.5;;;;;;;32.45;43.43848;934.2123;;;;
2020/07/28 13:14:12;;;;;;;4.4;2.3;;;;;;;32.23;43.44141;934.2654;;;;
2020/07/28 13:16:38;;;;;;;8.6;2.6;;;;;;;32.08;43.92969;934.2791;;;;
2020/07/28 13:19:04;;;;;;;5.1;2.3;;;;;;;32.07;44.80371;934.2492;;;;
2020/07/28 13:21:29;;;;;;;5.3;2.3;;;;;;;32.22;46.17383;934.3225;;;;
2020/07/28 13:23:54;;;;;;;4.4;2.4;;;;;;;32.45;46.19629;934.288;;;;
2020/07/28 13:26:21;;;;;;;5.1;2.3;;;;;;;32.42;45.07813;934.3633;;;;
2020/07/28 13:28:46;;;;;;;6.4;2.6;;;;;;;32.17;44.63477;934.3298;;;;
2020/07/28 13:31:12;;;;;;;5.3;2.4;;;;;;;32.01;44.41406;934.3378;;;;
2020/07/28 13:33:37;;;;;;;5.9;2.6;;;;;;;31.94;44.05957;934.2853;;;;
2020/07/28 13:36:04;;;;;;;7;2.6;;;;;;;31.93;44.21484;934.2828;;;;
2020/07/28 13:38:29;;;;;;;6.3;2.6;;;;;;;32.09;44.66211;934.2941;;;;
2020/07/28 13:41:03;;;;;;;4.8;2.4;;;;;;;32.33;44.63672;934.2769;;;;
2020/07/28 13:43:28;;;;;;;4.9;2.3;;;;;;;32.15;43.4707;934.3102;;;;
2020/07/28 13:45:54;;;;;;;4.2;2.8;;;;;;;32.12;43.60938;934.3378;;;;
2020/07/28 13:48:23;;;;;;;4.8;2.4;;;;;;;32.23;45.54004;934.3128;;;;
2020/07/28 13:50:48;;;;;;;4.4;2.7;;;;;;;32.45;44.97461;934.2866;;;;
2020/07/28 13:53:13;;;;;;;4.2;2.7;;;;;;;32.7;45.76563;934.2115;;;;
2020/07/28 13:55:38;;;;;;;4.4;2.6;;;;;;;32.87;44.1875;934.1856;;;;
2020/07/28 13:58:03;;;;;;;5.5;2.9;;;;;;;32.84;43.15137;934.1331;;;;
2020/07/28 14:00:36;;;;;;;4.8;2.9;;;;;;;32.57;43.19727;934.0948;;;;
2020/07/28 14:03:03;;;;;;;8.2;2.9;;;;;;;32.12;44.22168;934.111;;;;
2020/07/28 14:05:28;;;;;;;8.4;3.4;;;;;;;31.98;44.41211;934.2224;;;;
2020/07/28 14:07:54;;;;;;;5.7;3.4;;;;;;;31.72;45.38086;934.3844;;;;
2020/07/28 14:10:19;;;;;;;7.8;3.3;;;;;;;31.61;45.8125;934.5073;;;;
2020/07/28 14:12:46;;;;;;;6.6;3.2;;;;;;;31.5;46.95117;934.5062;;;;
2020/07/28 14:15:11;;;;;;;6.9;3.3;;;;;;;31.22;46.4668;934.5608;;;;
2020/07/28 14:17:37;;;;;;;8.2;3.6;;;;;;;31.19;47.26563;934.6711;;;;
2020/07/28 14:20:02;;;;;;;4.4;3.5;;;;;;;31;48.32129;934.7031;;;;
2020/07/28 14:22:28;;;;;;;9.3;3.4;;;;;;;30.72;47.41992;934.8418;;;;
2020/07/28 14:24:53;;;;;;;5.1;3.2;;;;;;;30.56;47.7373;935.1827;;;;